Time;durP1;ratioP1;P1;durP2;ratioP2;P2;SDS_P1;SDS_P2;PMS_P1;PMS_P2;Temp;Humidity;BMP_temperature;BMP_pressure;BME280_temperature;BME280_humidity;BME280_pressure;Samples;Min_cycle;Max_cycle;Signal;HPM_P1;HPM_P2
2021/10/21 00:01:45;;;;;;;;;;;20.90;45.40;;;;;;8238866;28;20368;-51
2021/10/21 00:05:46;;;;;;;;;;;20.90;45.40;;;;;;8238337;28;19914;-51
2021/10/21 00:09:47;;;;;;;;;;;20.90;45.40;;;;;;8238781;28;19925;-53
2021/10/21 00:13:47;;;;;;;;;;;20.90;45.40;;;;;;8238728;28;19925;-50
2021/10/21 00:17:48;;;;;;;;;;;20.80;45.40;;;;;;8237937;28;19914;-50
2021/10/21 00:21:48;;;;;;;;;;;20.80;45.40;;;;;;8238454;28;19914;-50
2021/10/21 00:25:49;;;;;;;;;;;20.80;45.40;;;;;;8238411;28;19910;-50
2021/10/21 00:29:49;;;;;;;;;;;20.80;45.50;;;;;;8237522;28;19922;-50
2021/10/21 00:33:50;;;;;;;;;;;20.80;45.50;;;;;;8238185;28;19914;-52
2021/10/21 00:37:50;;;;;;;;;;;20.80;45.50;;;;;;8237821;28;20394;-50
2021/10/21 00:41:51;;;;;;;;;;;20.80;45.50;;;;;;8237288;28;19957;-50
2021/10/21 00:45:51;;;;;;;;;;;20.80;45.50;;;;;;8237496;28;19917;-52
2021/10/21 00:49:52;;;;;;;;;;;20.80;45.50;;;;;;8237341;28;20017;-50
2021/10/21 00:53:52;;;;;;;;;;;20.80;45.50;;;;;;8237219;28;20307;-50
2021/10/21 00:57:53;;;;;;;;;;;20.80;45.50;;;;;;8236751;28;20322;-50
2021/10/21 01:01:53;;;;;;;;;;;20.70;45.50;;;;;;8236265;28;20283;-49
2021/10/21 01:05:54;;;;;;;;;;;20.70;45.50;;;;;;8236531;28;19914;-49
2021/10/21 01:09:55;;;;;;;;;;;20.70;45.50;;;;;;8236809;28;19924;-49
2021/10/21 01:13:55;;;;;;;;;;;20.70;45.50;;;;;;8237058;28;20118;-49
2021/10/21 01:17:57;;;;;;;;;;;20.70;45.60;;;;;;8236349;28;19921;-50
2021/10/21 01:21:57;;;;;;;;;;;20.70;45.50;;;;;;8236717;28;20363;-49
2021/10/21 01:25:58;;;;;;;;;;;20.70;45.60;;;;;;8236473;28;19918;-50
2021/10/21 01:29:58;;;;;;;;;;;20.70;45.60;;;;;;8235864;28;19918;-50
2021/10/21 01:33:59;;;;;;;;;;;20.70;45.60;;;;;;8236276;28;20355;-51
2021/10/21 01:37:59;;;;;;;;;;;20.70;45.70;;;;;;8235845;28;20319;-52
2021/10/21 01:42:00;;;;;;;;;;;20.70;45.70;;;;;;8235411;28;19937;-53
2021/10/21 01:46:00;;;;;;;;;;;20.70;45.80;;;;;;8235880;28;19921;-54
2021/10/21 01:50:00;;;;;;;;;;;20.70;45.80;;;;;;8235856;28;20372;-51
2021/10/21 01:54:01;;;;;;;;;;;20.60;45.80;;;;;;8235156;28;20362;-52
2021/10/21 01:58:01;;;;;;;;;;;20.60;45.80;;;;;;8235235;28;19925;-51
2021/10/21 02:02:02;;;;;;;;;;;20.60;45.80;;;;;;8235223;28;19914;-54
2021/10/21 02:06:03;;;;;;;;;;;20.60;45.90;;;;;;8234711;28;20005;-51
2021/10/21 02:10:04;;;;;;;;;;;20.60;46.00;;;;;;8234497;28;19922;-54
2021/10/21 02:14:05;;;;;;;;;;;20.60;45.90;;;;;;8234420;28;19956;-53
2021/10/21 02:18:05;;;;;;;;;;;20.60;46.00;;;;;;8234655;28;19914;-53
2021/10/21 02:22:06;;;;;;;;;;;20.60;46.00;;;;;;8234544;28;19917;-51
2021/10/21 02:26:06;;;;;;;;;;;20.60;46.00;;;;;;8234442;28;19977;-52
2021/10/21 02:30:08;;;;;;;;;;;20.60;46.00;;;;;;8234653;28;19922;-51
2021/10/21 02:34:08;;;;;;;;;;;20.60;46.10;;;;;;8234152;28;19949;-50
2021/10/21 02:38:10;;;;;;;;;;;20.60;46.10;;;;;;8233761;28;19910;-50
2021/10/21 02:42:10;;;;;;;;;;;20.50;46.10;;;;;;8233977;28;19923;-53
2021/10/21 02:46:11;;;;;;;;;;;20.50;46.10;;;;;;8234017;28;20269;-52
2021/10/21 02:50:12;;;;;;;;;;;20.50;46.10;;;;;;8233568;28;19921;-50
2021/10/21 02:54:12;;;;;;;;;;;20.50;46.10;;;;;;8234035;28;20023;-50
2021/10/21 02:58:13;;;;;;;;;;;20.50;46.70;;;;;;8233755;28;20375;-52
2021/10/21 03:02:13;;;;;;;;;;;20.50;46.20;;;;;;8233421;28;19953;-51
2021/10/21 03:06:13;;;;;;;;;;;20.50;46.20;;;;;;8233965;28;20363;-49
2021/10/21 03:10:14;;;;;;;;;;;20.50;46.20;;;;;;8234123;28;19922;-51
2021/10/21 03:14:14;;;;;;;;;;;20.50;46.30;;;;;;8232922;28;20371;-50
2021/10/21 03:18:15;;;;;;;;;;;20.50;46.30;;;;;;8233453;28;20292;-49
2021/10/21 03:22:15;;;;;;;;;;;20.50;46.20;;;;;;8237815;28;19917;-53
2021/10/21 03:26:16;;;;;;;;;;;20.50;46.30;;;;;;8239323;28;19961;-53
2021/10/21 03:30:16;;;;;;;;;;;20.60;46.30;;;;;;8239979;28;19917;-52
2021/10/21 03:34:17;;;;;;;;;;;20.60;46.30;;;;;;8239821;28;20359;-50
2021/10/21 03:38:17;;;;;;;;;;;20.60;46.30;;;;;;8239153;28;20403;-50
2021/10/21 03:42:18;;;;;;;;;;;20.60;46.30;;;;;;8239425;28;19969;-50
2021/10/21 03:46:18;;;;;;;;;;;20.60;46.30;;;;;;8239314;28;19984;-52
2021/10/21 03:50:19;;;;;;;;;;;20.70;46.40;;;;;;8239279;28;20375;-50
2021/10/21 03:54:19;;;;;;;;;;;20.70;46.40;;;;;;8239243;28;19925;-50
2021/10/21 03:58:21;;;;;;;;;;;20.70;46.40;;;;;;8239258;28;19957;-50
2021/10/21 04:02:21;;;;;;;;;;;20.70;46.40;;;;;;8238408;28;20228;-50
2021/10/21 04:06:22;;;;;;;;;;;20.70;46.30;;;;;;8238757;28;19926;-51
2021/10/21 04:10:22;;;;;;;;;;;20.80;46.30;;;;;;8238383;28;19929;-50
2021/10/21 04:14:22;;;;;;;;;;;20.80;46.30;;;;;;8236637;28;19926;-50
2021/10/21 04:18:23;;;;;;;;;;;20.80;46.20;;;;;;8237104;28;19914;-49
2021/10/21 04:22:23;;;;;;;;;;;20.80;46.20;;;;;;8238219;28;19910;-51
2021/10/21 04:26:24;;;;;;;;;;;20.80;46.10;;;;;;8237924;28;20427;-50
2021/10/21 04:30:24;;;;;;;;;;;20.80;46.10;;;;;;8238456;28;19922;-50
2021/10/21 04:34:25;;;;;;;;;;;20.90;46.10;;;;;;8237199;28;20295;-49
2021/10/21 04:38:25;;;;;;;;;;;20.80;46.00;;;;;;8237348;28;20005;-50
2021/10/21 04:42:26;;;;;;;;;;;20.90;46.00;;;;;;8237559;28;19910;-50
2021/10/21 04:46:26;;;;;;;;;;;20.80;45.90;;;;;;8237577;28;20287;-51
2021/10/21 04:50:26;;;;;;;;;;;20.90;45.90;;;;;;8237646;28;19922;-49
2021/10/21 04:54:27;;;;;;;;;;;20.80;45.80;;;;;;8237462;28;20494;-50
2021/10/21 04:58:29;;;;;;;;;;;20.90;45.70;;;;;;8237074;28;19928;-49
2021/10/21 05:02:29;;;;;;;;;;;20.90;45.60;;;;;;8236520;28;19914;-50
2021/10/21 05:06:30;;;;;;;;;;;20.90;45.60;;;;;;8237149;28;19914;-50
2021/10/21 05:10:30;;;;;;;;;;;20.90;45.60;;;;;;8237416;28;19930;-50
2021/10/21 05:14:31;;;;;;;;;;;20.90;45.50;;;;;;8236189;28;19921;-49
2021/10/21 05:18:31;;;;;;;;;;;20.90;45.40;;;;;;8236549;28;20356;-50
2021/10/21 05:22:32;;;;;;;;;;;20.90;45.40;;;;;;8236321;28;19985;-50
2021/10/21 05:26:32;;;;;;;;;;;20.90;45.30;;;;;;8236210;28;19936;-54
2021/10/21 05:30:33;;;;;;;;;;;20.80;45.30;;;;;;8236558;28;20260;-53
2021/10/21 05:34:34;;;;;;;;;;;20.90;45.20;;;;;;8236152;28;19920;-50
2021/10/21 05:38:34;;;;;;;;;;;20.90;45.20;;;;;;8235473;28;19946;-50
2021/10/21 05:42:34;;;;;;;;;;;20.90;45.20;;;;;;8236034;28;19993;-48
2021/10/21 05:46:35;;;;;;;;;;;20.90;45.10;;;;;;8236182;28;20320;-48
2021/10/21 05:50:35;;;;;;;;;;;20.90;45.10;;;;;;8235117;28;19927;-53
2021/10/21 05:54:36;;;;;;;;;;;20.90;45.00;;;;;;8235705;28;19973;-49
2021/10/21 05:58:38;;;;;;;;;;;20.90;45.00;;;;;;8235189;28;19910;-49
2021/10/21 06:02:38;;;;;;;;;;;20.90;45.00;;;;;;8234675;28;19918;-50
2021/10/21 06:06:39;;;;;;;;;;;20.90;44.90;;;;;;8235240;28;19910;-51
2021/10/21 06:10:39;;;;;;;;;;;21.00;44.90;;;;;;8234784;28;19970;-49
2021/10/21 06:14:40;;;;;;;;;;;20.90;44.80;;;;;;8234434;28;19968;-50
2021/10/21 06:18:40;;;;;;;;;;;21.00;44.80;;;;;;8235024;28;20327;-50
2021/10/21 06:22:41;;;;;;;;;;;21.00;44.80;;;;;;8234640;28;19910;-48
2021/10/21 06:26:41;;;;;;;;;;;21.00;44.80;;;;;;8234250;28;19918;-49
2021/10/21 06:30:44;;;;;;;;;;;21.00;44.70;;;;;;8234539;28;19980;-49
2021/10/21 06:34:45;;;;;;;;;;;21.00;44.70;;;;;;8234392;28;20390;-50
2021/10/21 06:38:45;;;;;;;;;;;21.00;44.60;;;;;;8233790;28;19914;-50
2021/10/21 06:42:46;;;;;;;;;;;21.00;44.60;;;;;;8234257;28;19910;-50
2021/10/21 06:46:47;;;;;;;;;;;21.00;44.50;;;;;;8234159;28;20327;-50
2021/10/21 06:50:47;;;;;;;;;;;21.00;44.50;;;;;;8233794;28;19929;-50
2021/10/21 06:54:48;;;;;;;;;;;21.00;44.40;;;;;;8233603;28;19922;-50
2021/10/21 06:58:48;;;;;;;;;;;21.00;44.40;;;;;;8234178;28;19914;-50
2021/10/21 07:02:49;;;;;;;;;;;21.00;44.30;;;;;;8232534;28;19964;-50
2021/10/21 07:06:50;;;;;;;;;;;21.00;44.30;;;;;;8233927;28;19911;-50
2021/10/21 07:10:50;;;;;;;;;;;21.00;44.40;;;;;;8233550;28;19922;-51
2021/10/21 07:14:50;;;;;;;;;;;20.90;44.30;;;;;;8233012;28;20380;-50
2021/10/21 07:18:51;;;;;;;;;;;20.90;44.80;;;;;;8233605;28;19942;-49
2021/10/21 07:22:51;;;;;;;;;;;20.90;44.20;;;;;;8233295;28;20106;-50
2021/10/21 07:26:52;;;;;;;;;;;20.90;44.30;;;;;;8233144;28;19917;-50
2021/10/21 07:30:56;;;;;;;;;;;20.90;44.20;;;;;;8233500;28;19922;-50
2021/10/21 07:34:57;;;;;;;;;;;20.90;44.10;;;;;;8233386;28;19989;-50
2021/10/21 07:38:57;;;;;;;;;;;20.90;44.10;;;;;;8232740;28;20402;-50
2021/10/21 07:42:58;;;;;;;;;;;20.90;44.10;;;;;;8233113;28;19949;-49
2021/10/21 07:46:59;;;;;;;;;;;20.90;44.00;;;;;;8233338;28;19971;-50
2021/10/21 07:50:59;;;;;;;;;;;21.00;43.90;;;;;;8232297;28;19922;-50
2021/10/21 07:55:00;;;;;;;;;;;21.00;43.90;;;;;;8233217;28;20272;-49
2021/10/21 07:59:01;;;;;;;;;;;21.00;43.80;;;;;;8232970;28;20252;-49
2021/10/21 08:03:02;;;;;;;;;;;21.00;43.70;;;;;;8232513;28;19921;-50
2021/10/21 08:07:02;;;;;;;;;;;21.00;43.70;;;;;;8233805;28;20347;-49
2021/10/21 08:11:03;;;;;;;;;;;21.10;43.70;;;;;;8238340;28;19955;-47
2021/10/21 08:15:04;;;;;;;;;;;21.00;43.60;;;;;;8238383;28;19915;-48
2021/10/21 08:19:05;;;;;;;;;;;21.10;43.60;;;;;;8238276;28;19916;-50
2021/10/21 08:23:05;;;;;;;;;;;21.10;43.60;;;;;;8237829;28;19922;-49
2021/10/21 08:27:06;;;;;;;;;;;21.10;43.50;;;;;;8238399;28;19997;-53
2021/10/21 08:31:06;;;;;;;;;;;21.10;43.50;;;;;;8238059;28;20376;-48
2021/10/21 08:35:07;;;;;;;;;;;21.10;43.50;;;;;;8237463;28;19910;-50
2021/10/21 08:39:07;;;;;;;;;;;21.10;43.50;;;;;;8237882;28;19937;-48
2021/10/21 08:43:08;;;;;;;;;;;21.10;43.40;;;;;;8237747;28;19921;-49
2021/10/21 08:47:09;;;;;;;;;;;21.10;43.40;;;;;;8237407;28;19925;-49
2021/10/21 08:51:09;;;;;;;;;;;21.10;43.40;;;;;;8237615;28;19984;-51
2021/10/21 08:55:11;;;;;;;;;;;21.20;43.40;;;;;;8237598;28;19918;-48
2021/10/21 08:59:11;;;;;;;;;;;21.20;43.40;;;;;;8236771;28;19910;-49
2021/10/21 09:03:22;;;;;;;;;;;21.20;43.30;;;;;;8237063;28;19917;-49
2021/10/21 09:11:43;;;;;;;;;;;21.20;43.10;;;;;;8236483;28;20004;-50
2021/10/21 09:15:46;;;;;;;;;;;21.20;43.10;;;;;;8236924;28;20005;-49
2021/10/21 09:19:47;;;;;;;;;;;21.20;43.10;;;;;;8236271;28;19916;-49
2021/10/21 09:23:47;;;;;;;;;;;21.20;43.00;;;;;;8235974;28;19914;-49
2021/10/21 09:27:48;;;;;;;;;;;21.20;43.00;;;;;;8236704;28;20399;-49
2021/10/21 09:32:01;;;;;;;;;;;21.20;43.00;;;;;;8236100;28;19957;-50
2021/10/21 09:36:02;;;;;;;;;;;21.20;42.90;;;;;;8235747;28;20060;-49
2021/10/21 09:40:32;;;;;;;;;;;21.20;43.00;;;;;;8235998;28;19922;-50
2021/10/21 09:44:32;;;;;;;;;;;21.20;43.10;;;;;;8243551;28;19920;-49
2021/10/21 09:48:32;;;;;;;;;;;21.20;43.10;;;;;;8235946;28;19914;-50
2021/10/21 09:52:33;;;;;;;;;;;21.10;43.00;;;;;;8236172;28;19922;-49
2021/10/21 09:56:52;;;;;;;;;;;21.10;43.10;;;;;;8234925;28;19914;-49
2021/10/21 10:01:03;;;;;;;;;;;21.10;43.20;;;;;;8234330;28;20368;-48
2021/10/21 10:05:04;;;;;;;;;;;21.10;43.20;;;;;;8227736;28;19914;-49
2021/10/21 10:09:05;;;;;;;;;;;21.10;43.10;;;;;;8232260;28;20005;-50
2021/10/21 10:13:06;;;;;;;;;;;21.10;43.50;;;;;;8228380;28;20379;-50
2021/10/21 10:17:06;;;;;;;;;;;21.20;43.60;;;;;;8228260;28;19918;-49
2021/10/21 10:21:18;;;;;;;;;;;21.30;43.80;;;;;;8227615;28;19924;-49
2021/10/21 10:25:19;;;;;;;;;;;21.30;42.80;;;;;;8226885;28;20013;-49
2021/10/21 10:29:32;;;;;;;;;;;21.40;43.10;;;;;;8227971;28;19962;-49
2021/10/21 10:33:32;;;;;;;;;;;21.40;43.00;;;;;;8229389;28;19922;-50
2021/10/21 10:37:39;;;;;;;;;;;21.40;42.90;;;;;;8228410;28;19918;-50
2021/10/21 10:41:42;;;;;;;;;;;21.50;42.90;;;;;;8227976;28;19925;-50
2021/10/21 10:45:47;;;;;;;;;;;21.50;42.90;;;;;;8228340;28;19918;-49
2021/10/21 10:49:50;;;;;;;;;;;21.50;42.90;;;;;;8228178;28;19926;-47
2021/10/21 10:53:51;;;;;;;;;;;21.50;42.80;;;;;;8223667;28;19929;-48
2021/10/21 10:57:53;;;;;;;;;;;21.40;42.70;;;;;;8226111;28;19918;-48
2021/10/21 11:01:54;;;;;;;;;;;21.30;41.50;;;;;;8227397;28;20308;-47
2021/10/21 11:05:55;;;;;;;;;;;21.10;41.60;;;;;;8225346;28;19922;-47
2021/10/21 11:10:14;;;;;;;;;;;21.00;42.80;;;;;;8227655;28;19949;-47
2021/10/21 11:14:18;;;;;;;;;;;20.90;41.80;;;;;;8227714;28;19922;-48
2021/10/21 11:18:23;;;;;;;;;;;20.90;42.70;;;;;;8235393;28;19924;-48
2021/10/21 11:22:37;;;;;;;;;;;21.00;43.20;;;;;;8227779;28;19926;-48
2021/10/21 11:26:37;;;;;;;;;;;21.00;42.20;;;;;;8219858;28;19914;-46
2021/10/21 11:30:38;;;;;;;;;;;20.80;41.30;;;;;;8231563;28;20522;-45
2021/10/21 11:34:39;;;;;;;;;;;20.90;41.50;;;;;;8227635;28;19925;-46
2021/10/21 11:38:39;;;;;;;;;;;20.90;41.40;;;;;;8226734;28;19965;-46
2021/10/21 11:47:00;;;;;;;;;;;21.00;40.20;;;;;;8234391;28;20298;-45
2021/10/21 11:51:04;;;;;;;;;;;21.00;39.60;;;;;;8228267;28;20000;-46
2021/10/21 11:55:05;;;;;;;;;;;21.00;39.00;;;;;;8232761;28;19929;-49
2021/10/21 11:59:06;;;;;;;;;;;21.00;40.30;;;;;;8231895;28;19925;-48
2021/10/21 12:03:06;;;;;;;;;;;21.20;40.50;;;;;;8232726;28;19918;-46
2021/10/21 12:07:07;;;;;;;;;;;21.30;39.90;;;;;;8232771;28;19925;-46
2021/10/21 12:11:07;;;;;;;;;;;21.20;38.80;;;;;;8231861;28;19926;-46
2021/10/21 12:15:09;;;;;;;;;;;21.10;38.60;;;;;;8231652;28;19922;-47
2021/10/21 12:19:10;;;;;;;;;;;21.10;38.70;;;;;;8230198;28;19921;-48
2021/10/21 12:23:15;;;;;;;;;;;21.10;39.00;;;;;;8229575;28;19925;-47
2021/10/21 12:27:19;;;;;;;;;;;21.20;39.60;;;;;;8232429;28;19925;-46
2021/10/21 12:31:23;;;;;;;;;;;21.20;38.30;;;;;;8230933;28;19926;-49
2021/10/21 12:35:23;;;;;;;;;;;21.20;36.50;;;;;;8230445;28;19929;-48
2021/10/21 12:39:30;;;;;;;;;;;21.20;38.80;;;;;;8231052;28;20288;-47
2021/10/21 12:43:31;;;;;;;;;;;21.40;38.90;;;;;;8231867;28;19918;-49
2021/10/21 12:47:33;;;;;;;;;;;21.50;39.00;;;;;;8231059;28;20288;-47
2021/10/21 12:51:34;;;;;;;;;;;21.70;39.40;;;;;;8224761;28;19926;-48
2021/10/21 12:55:37;;;;;;;;;;;21.80;39.70;;;;;;8232802;28;19925;-47
2021/10/21 12:59:37;;;;;;;;;;;21.90;39.30;;;;;;8228233;28;19921;-49
2021/10/21 13:03:41;;;;;;;;;;;22.00;39.70;;;;;;8228432;28;19925;-49
2021/10/21 13:07:42;;;;;;;;;;;22.00;40.00;;;;;;8224363;28;20268;-48
2021/10/21 13:11:43;;;;;;;;;;;22.10;40.10;;;;;;8228851;28;19948;-48
2021/10/21 13:15:43;;;;;;;;;;;22.20;40.10;;;;;;8223693;28;19925;-48
2021/10/21 13:19:44;;;;;;;;;;;22.30;40.20;;;;;;8222658;28;19950;-47
2021/10/21 13:23:44;;;;;;;;;;;22.30;40.30;;;;;;8225673;28;19918;-48
2021/10/21 13:27:45;;;;;;;;;;;22.20;38.80;;;;;;8228424;28;19918;-48
2021/10/21 13:31:45;;;;;;;;;;;22.10;39.40;;;;;;8240381;28;19926;-49
2021/10/21 13:35:46;;;;;;;;;;;21.80;35.40;;;;;;8226125;28;19918;-48
2021/10/21 13:39:47;;;;;;;;;;;21.90;37.50;;;;;;8229370;28;19925;-49
2021/10/21 13:43:48;;;;;;;;;;;21.90;37.40;;;;;;8228792;28;20364;-50
2021/10/21 13:47:48;;;;;;;;;;;22.00;37.60;;;;;;8227020;28;19934;-47
2021/10/21 13:51:49;;;;;;;;;;;22.10;38.00;;;;;;8227998;28;19992;-49
2021/10/21 13:55:50;;;;;;;;;;;22.20;38.50;;;;;;8235075;28;19921;-46
2021/10/21 13:59:51;;;;;;;;;;;22.30;38.90;;;;;;8228202;28;19918;-49
2021/10/21 14:03:52;;;;;;;;;;;22.30;39.00;;;;;;8229104;28;19922;-47
2021/10/21 14:07:52;;;;;;;;;;;22.30;39.20;;;;;;8232605;28;19925;-48
2021/10/21 14:11:53;;;;;;;;;;;22.30;39.40;;;;;;8228807;28;19973;-48
2021/10/21 14:15:53;;;;;;;;;;;22.30;39.50;;;;;;8228033;28;19921;-49
2021/10/21 14:19:54;;;;;;;;;;;22.30;39.50;;;;;;8228483;28;19917;-48
2021/10/21 14:23:54;;;;;;;;;;;22.30;39.80;;;;;;8224741;28;19922;-45
2021/10/21 14:27:55;;;;;;;;;;;22.20;38.40;;;;;;8228253;28;19917;-44
2021/10/21 14:31:56;;;;;;;;;;;22.00;37.20;;;;;;8229686;28;19926;-47
2021/10/21 14:35:56;;;;;;;;;;;21.70;36.50;;;;;;8227914;28;19940;-49
2021/10/21 14:39:56;;;;;;;;;;;21.70;37.60;;;;;;8233708;28;19910;-48
2021/10/21 14:43:58;;;;;;;;;;;21.70;38.50;;;;;;8234120;28;19921;-47
2021/10/21 14:47:59;;;;;;;;;;;21.80;38.60;;;;;;8232729;28;19924;-49
2021/10/21 14:51:59;;;;;;;;;;;21.90;38.90;;;;;;8234282;28;19922;-47
2021/10/21 14:56:01;;;;;;;;;;;21.90;38.90;;;;;;8233869;28;19914;-47
2021/10/21 15:00:02;;;;;;;;;;;22.00;39.00;;;;;;8233406;28;20260;-50
2021/10/21 15:04:05;;;;;;;;;;;22.00;39.00;;;;;;8233694;28;19921;-47
2021/10/21 15:08:21;;;;;;;;;;;22.00;39.10;;;;;;8233179;28;19914;-50
2021/10/21 15:24:48;;;;;;;;;;;22.00;39.30;;;;;;8245282;28;19920;-50
2021/10/21 15:28:48;;;;;;;;;;;22.00;39.40;;;;;;8243998;28;20378;-48
2021/10/21 15:32:49;;;;;;;;;;;22.10;39.40;;;;;;8243363;28;19926;-47
2021/10/21 15:36:50;;;;;;;;;;;22.10;39.40;;;;;;8244304;28;19921;-50
2021/10/21 15:40:51;;;;;;;;;;;22.00;39.40;;;;;;8243867;28;19921;-48
2021/10/21 16:18:50;;;;;;;;;;;21.90;39.80;;;;;;8256440;28;19914;-47
2021/10/21 16:23:03;;;;;;;;;;;21.80;40.30;;;;;;8244150;28;20359;-51
2021/10/21 16:27:23;;;;;;;;;;;21.80;39.90;;;;;;8253483;28;19936;-47
2021/10/21 16:31:24;;;;;;;;;;;21.80;40.00;;;;;;8237820;28;20426;-49
2021/10/21 16:35:24;;;;;;;;;;;21.70;40.00;;;;;;8237797;28;20360;-48
2021/10/21 16:39:25;;;;;;;;;;;21.70;40.00;;;;;;8237873;28;19921;-47
2021/10/21 16:43:25;;;;;;;;;;;21.70;40.20;;;;;;8237538;28;19963;-49
2021/10/21 16:47:26;;;;;;;;;;;21.70;40.20;;;;;;8237074;28;19914;-49
2021/10/21 16:51:27;;;;;;;;;;;21.70;40.10;;;;;;8237677;28;19918;-47
2021/10/21 16:55:27;;;;;;;;;;;21.70;40.20;;;;;;8238163;28;19925;-49
2021/10/21 16:59:30;;;;;;;;;;;21.60;40.20;;;;;;8236752;28;19914;-50
2021/10/21 17:03:32;;;;;;;;;;;21.70;40.20;;;;;;8237039;28;19945;-49
2021/10/21 17:07:33;;;;;;;;;;;21.70;40.20;;;;;;8236885;28;19936;-48
2021/10/21 17:11:33;;;;;;;;;;;21.70;40.30;;;;;;8236369;28;19918;-49
2021/10/21 17:15:33;;;;;;;;;;;21.70;40.20;;;;;;8237103;28;19961;-49
2021/10/21 17:19:34;;;;;;;;;;;21.70;40.30;;;;;;8236428;28;19968;-50
2021/10/21 17:23:35;;;;;;;;;;;21.60;40.20;;;;;;8234956;28;19914;-48
2021/10/21 17:27:36;;;;;;;;;;;21.70;40.30;;;;;;8235663;28;19918;-47
2021/10/21 17:31:37;;;;;;;;;;;21.70;40.30;;;;;;8236350;28;19949;-48
2021/10/21 17:35:37;;;;;;;;;;;21.70;40.30;;;;;;8235674;28;19956;-50
2021/10/21 17:39:38;;;;;;;;;;;21.70;40.30;;;;;;8235550;28;19921;-50
2021/10/21 17:43:39;;;;;;;;;;;21.70;40.30;;;;;;8235710;28;20283;-49
2021/10/21 17:47:40;;;;;;;;;;;21.60;40.30;;;;;;8235068;28;19924;-49
2021/10/21 17:51:42;;;;;;;;;;;21.70;40.30;;;;;;8233744;28;19922;-48
2021/10/21 17:55:42;;;;;;;;;;;21.70;40.30;;;;;;8235284;28;19918;-49
2021/10/21 17:59:43;;;;;;;;;;;21.60;40.30;;;;;;8234573;28;19925;-48
2021/10/21 18:03:43;;;;;;;;;;;21.60;40.30;;;;;;8235006;28;19918;-49
2021/10/21 18:07:45;;;;;;;;;;;21.60;40.40;;;;;;8235166;28;20455;-49
2021/10/21 18:11:47;;;;;;;;;;;21.60;40.40;;;;;;8234513;28;19922;-48
2021/10/21 18:15:49;;;;;;;;;;;21.60;40.40;;;;;;8235220;28;19914;-50
2021/10/21 18:19:49;;;;;;;;;;;21.60;40.50;;;;;;8233975;28;19918;-48
2021/10/21 18:23:50;;;;;;;;;;;21.50;40.50;;;;;;8233536;28;19989;-48
2021/10/21 18:27:52;;;;;;;;;;;21.50;40.60;;;;;;8234324;28;19909;-52
2021/10/21 18:31:53;;;;;;;;;;;21.50;40.60;;;;;;8234211;28;19989;-49
2021/10/21 18:35:55;;;;;;;;;;;21.50;40.60;;;;;;8233988;28;19914;-48
2021/10/21 18:39:56;;;;;;;;;;;21.50;40.70;;;;;;8234257;28;19921;-49
2021/10/21 18:43:56;;;;;;;;;;;21.50;40.80;;;;;;8233999;28;20375;-48
2021/10/21 18:47:57;;;;;;;;;;;21.40;40.80;;;;;;8233170;28;19914;-48
2021/10/21 18:51:57;;;;;;;;;;;21.40;40.80;;;;;;8232290;28;20307;-49
2021/10/21 18:55:58;;;;;;;;;;;21.40;40.80;;;;;;8233647;28;19968;-48
2021/10/21 18:59:59;;;;;;;;;;;21.40;40.90;;;;;;8228973;28;20004;-48
2021/10/21 19:04:00;;;;;;;;;;;21.40;40.90;;;;;;8227401;28;20009;-48
2021/10/21 19:08:00;;;;;;;;;;;21.40;40.90;;;;;;8231059;28;19914;-51
2021/10/21 19:12:02;;;;;;;;;;;21.30;40.90;;;;;;8233250;28;20375;-48
2021/10/21 19:16:03;;;;;;;;;;;21.40;40.90;;;;;;8228804;28;19914;-49
2021/10/21 19:20:06;;;;;;;;;;;21.40;40.90;;;;;;8232696;28;19910;-48
2021/10/21 19:24:07;;;;;;;;;;;21.30;40.90;;;;;;8233365;28;20287;-51
2021/10/21 19:28:07;;;;;;;;;;;21.30;40.90;;;;;;8233655;28;19917;-48
2021/10/21 19:32:08;;;;;;;;;;;21.30;40.90;;;;;;8233292;28;19957;-48
2021/10/21 19:36:09;;;;;;;;;;;21.40;41.00;;;;;;8233324;28;19914;-47
2021/10/21 19:40:09;;;;;;;;;;;21.30;40.90;;;;;;8233502;28;19951;-48
2021/10/21 19:44:10;;;;;;;;;;;21.30;40.90;;;;;;8232981;28;19925;-48
2021/10/21 19:48:11;;;;;;;;;;;21.30;41.00;;;;;;8233443;28;20430;-48
2021/10/21 19:52:11;;;;;;;;;;;21.30;41.00;;;;;;8233350;28;19929;-51
2021/10/21 19:56:11;;;;;;;;;;;21.30;40.90;;;;;;8232777;28;19914;-49
2021/10/21 20:00:12;;;;;;;;;;;21.30;40.90;;;;;;8233256;28;19914;-49
2021/10/21 20:04:13;;;;;;;;;;;21.30;40.90;;;;;;8237017;28;19938;-48
2021/10/21 20:08:13;;;;;;;;;;;21.30;40.90;;;;;;8238491;28;20375;-49
2021/10/21 20:12:16;;;;;;;;;;;21.30;40.90;;;;;;8237744;28;19933;-49
2021/10/21 20:16:17;;;;;;;;;;;21.30;40.90;;;;;;8238882;28;20379;-49
2021/10/21 20:20:17;;;;;;;;;;;21.30;40.90;;;;;;8238229;28;19982;-50
2021/10/21 20:24:17;;;;;;;;;;;21.30;40.90;;;;;;8238541;28;19921;-50
2021/10/21 20:28:18;;;;;;;;;;;21.30;40.90;;;;;;8238439;28;19921;-49
2021/10/21 20:32:18;;;;;;;;;;;21.30;41.00;;;;;;8238114;28;19925;-49
2021/10/21 20:36:19;;;;;;;;;;;21.30;41.00;;;;;;8238164;28;20299;-48
2021/10/21 20:40:19;;;;;;;;;;;21.30;41.10;;;;;;8237964;28;19918;-50
2021/10/21 20:44:20;;;;;;;;;;;21.20;41.10;;;;;;8237466;28;19921;-49
2021/10/21 20:48:20;;;;;;;;;;;21.20;41.10;;;;;;8237743;28;19961;-48
2021/10/21 20:52:21;;;;;;;;;;;21.20;41.10;;;;;;8237884;28;19926;-51
2021/10/21 20:56:21;;;;;;;;;;;21.20;41.20;;;;;;8237113;28;19914;-50
2021/10/21 21:00:22;;;;;;;;;;;21.20;41.20;;;;;;8237517;28;19949;-49
2021/10/21 21:04:22;;;;;;;;;;;21.20;41.20;;;;;;8237420;28;19914;-52
2021/10/21 21:08:23;;;;;;;;;;;21.20;41.20;;;;;;8236543;28;19922;-52
2021/10/21 21:12:24;;;;;;;;;;;21.20;41.20;;;;;;8237523;28;20008;-48
2021/10/21 21:16:25;;;;;;;;;;;21.20;41.20;;;;;;8236095;28;19914;-52
2021/10/21 21:20:25;;;;;;;;;;;21.10;41.20;;;;;;8236471;28;19920;-51
2021/10/21 21:24:26;;;;;;;;;;;21.10;41.30;;;;;;8236864;28;19921;-52
2021/10/21 21:28:26;;;;;;;;;;;21.10;41.30;;;;;;8236802;28;19914;-48
2021/10/21 21:32:28;;;;;;;;;;;21.20;41.40;;;;;;8236179;28;19952;-48
2021/10/21 21:36:28;;;;;;;;;;;21.10;41.30;;;;;;8236551;28;19914;-47
2021/10/21 21:40:29;;;;;;;;;;;21.10;41.40;;;;;;8236200;28;20291;-48
2021/10/21 21:44:29;;;;;;;;;;;21.10;41.40;;;;;;8235582;28;19914;-48
2021/10/21 21:48:30;;;;;;;;;;;21.10;41.40;;;;;;8235783;28;20434;-47
2021/10/21 21:52:31;;;;;;;;;;;21.10;41.40;;;;;;8235954;28;20393;-47
2021/10/21 21:56:32;;;;;;;;;;;21.10;41.50;;;;;;8235151;28;19922;-48
2021/10/21 22:00:33;;;;;;;;;;;21.10;41.50;;;;;;8234896;28;19914;-48
2021/10/21 22:04:34;;;;;;;;;;;21.10;41.60;;;;;;8235640;28;20028;-50
2021/10/21 22:08:35;;;;;;;;;;;21.10;41.60;;;;;;8234832;28;19914;-48
2021/10/21 22:12:35;;;;;;;;;;;21.10;41.60;;;;;;8234472;28;19961;-48
2021/10/21 22:16:37;;;;;;;;;;;21.00;41.60;;;;;;8234971;28;20339;-48
2021/10/21 22:20:37;;;;;;;;;;;21.00;41.60;;;;;;8234656;28;19964;-48
2021/10/21 22:24:38;;;;;;;;;;;21.10;41.70;;;;;;8235256;28;19914;-48
2021/10/21 22:28:38;;;;;;;;;;;21.00;41.70;;;;;;8233681;28;20406;-48
2021/10/21 22:32:39;;;;;;;;;;;21.00;41.70;;;;;;8234402;28;20557;-48
2021/10/21 22:36:40;;;;;;;;;;;21.00;41.70;;;;;;8234518;28;20367;-48
2021/10/21 22:40:41;;;;;;;;;;;21.00;41.80;;;;;;8234437;28;19914;-47
2021/10/21 22:44:41;;;;;;;;;;;21.00;41.80;;;;;;8234008;28;19914;-49
2021/10/21 22:48:42;;;;;;;;;;;21.00;41.80;;;;;;8234192;28;20004;-48
2021/10/21 22:52:42;;;;;;;;;;;21.00;41.90;;;;;;8234393;28;20009;-48
2021/10/21 22:56:42;;;;;;;;;;;21.00;41.90;;;;;;8233668;28;19914;-48
2021/10/21 23:00:43;;;;;;;;;;;20.90;41.90;;;;;;8233954;28;19918;-50
2021/10/21 23:04:49;;;;;;;;;;;20.90;41.90;;;;;;8233752;28;19925;-48
2021/10/21 23:08:49;;;;;;;;;;;20.90;41.90;;;;;;8233973;28;19914;-47
2021/10/21 23:12:50;;;;;;;;;;;20.90;42.00;;;;;;8234119;28;20315;-48
2021/10/21 23:16:50;;;;;;;;;;;20.80;42.00;;;;;;8233708;28;19921;-49
2021/10/21 23:20:51;;;;;;;;;;;20.90;42.10;;;;;;8233395;28;20008;-47
2021/10/21 23:24:51;;;;;;;;;;;20.80;42.00;;;;;;8233458;28;19981;-48
2021/10/21 23:28:52;;;;;;;;;;;20.80;42.10;;;;;;8233481;28;20009;-48
2021/10/21 23:32:52;;;;;;;;;;;20.80;42.10;;;;;;8233147;28;19929;-49
2021/10/21 23:36:53;;;;;;;;;;;20.80;42.20;;;;;;8234035;28;19952;-48
2021/10/21 23:40:53;;;;;;;;;;;20.80;42.20;;;;;;8239936;28;19920;-48
2021/10/21 23:44:54;;;;;;;;;;;20.80;42.20;;;;;;8239187;28;20351;-48
2021/10/21 23:48:55;;;;;;;;;;;20.80;42.30;;;;;;8239142;28;19918;-48
2021/10/21 23:52:55;;;;;;;;;;;20.80;42.30;;;;;;8239398;28;19922;-48
2021/10/21 23:56:56;;;;;;;;;;;20.80;42.30;;;;;;8238998;28;19918;-47
